Time;durP1;ratioP1;P1;durP2;ratioP2;P2;SDS_P1;SDS_P2;PMS_P1;PMS_P2;Temp;Humidity;BMP_temperature;BMP_pressure;BME280_temperature;BME280_humidity;BME280_pressure;Samples;Min_cycle;Max_cycle;Signal;HPM_P1;HPM_P2
2022/03/03 00:00:01;;;;;;;27.83;17.80;;;;;;;2.51;59.45;101963.53;5030537;28;20103;-54
2022/03/03 00:02:26;;;;;;;29.03;18.37;;;;;;;2.41;59.13;101957.06;5027737;28;20506;-55
2022/03/03 00:04:51;;;;;;;27.30;18.23;;;;;;;2.36;59.93;101959.09;5022434;28;20125;-54
2022/03/03 00:07:17;;;;;;;30.67;17.93;;;;;;;2.36;59.97;101956.50;5031026;28;20065;-55
2022/03/03 00:09:42;;;;;;;30.00;18.50;;;;;;;2.34;59.59;101953.09;5030654;28;20029;-54
2022/03/03 00:12:07;;;;;;;32.73;18.63;;;;;;;2.27;58.89;101949.97;5031241;28;20041;-56
2022/03/03 00:14:33;;;;;;;28.47;18.90;;;;;;;2.25;58.69;101951.78;5033570;28;20047;-54
2022/03/03 00:16:58;;;;;;;28.90;18.90;;;;;;;2.23;58.97;101944.00;5034227;28;20034;-54
2022/03/03 00:19:24;;;;;;;29.40;18.90;;;;;;;2.21;59.90;101945.88;5032752;28;20411;-53
2022/03/03 00:21:49;;;;;;;27.47;18.17;;;;;;;2.21;59.45;101945.03;5033493;28;20039;-56
2022/03/03 00:24:14;;;;;;;30.30;19.23;;;;;;;2.19;61.23;101942.50;5031496;28;20033;-55
2022/03/03 00:26:39;;;;;;;31.87;19.97;;;;;;;2.10;59.81;101942.97;5032372;28;20038;-55
2022/03/03 00:29:05;;;;;;;30.40;18.97;;;;;;;2.08;60.26;101950.03;5031866;28;20500;-55
2022/03/03 00:31:30;;;;;;;30.23;19.10;;;;;;;1.99;60.63;101946.13;5032523;28;20067;-54
2022/03/03 00:33:55;;;;;;;29.90;19.10;;;;;;;1.96;59.70;101936.66;5034104;28;20033;-55
2022/03/03 00:36:21;;;;;;;31.13;19.23;;;;;;;1.98;60.13;101944.44;5033424;28;20052;-55
2022/03/03 00:38:48;;;;;;;30.70;19.80;;;;;;;1.92;60.23;101944.75;5031836;28;20459;-54
2022/03/03 00:41:13;;;;;;;30.77;19.17;;;;;;;1.92;61.38;101942.97;5029109;28;20021;-53
2022/03/03 00:43:38;;;;;;;29.90;19.10;;;;;;;1.90;59.97;101939.59;5032592;28;20025;-55
2022/03/03 00:46:03;;;;;;;30.10;18.73;;;;;;;1.86;61.40;101935.44;5028638;28;20021;-53
2022/03/03 00:48:29;;;;;;;28.23;18.57;;;;;;;1.84;61.43;101938.16;5030443;28;20040;-55
2022/03/03 00:50:54;;;;;;;30.77;19.83;;;;;;;1.81;61.92;101942.66;5029625;28;20033;-56
2022/03/03 00:53:19;;;;;;;30.73;19.47;;;;;;;1.78;62.23;101933.19;5032839;28;20068;-55
2022/03/03 00:55:44;;;;;;;31.07;19.10;;;;;;;1.78;61.39;101937.59;5023521;28;20366;-54
2022/03/03 00:58:10;;;;;;;35.70;19.77;;;;;;;1.72;60.80;101934.34;5033657;28;20037;-55
2022/03/03 01:00:35;;;;;;;30.20;19.17;;;;;;;1.71;61.49;101937.03;5033195;28;20029;-54
2022/03/03 01:03:00;;;;;;;28.27;19.03;;;;;;;1.67;61.92;101931.13;5031986;28;20025;-54
2022/03/03 01:05:26;;;;;;;29.53;19.60;;;;;;;1.64;62.11;101922.59;5032593;28;20045;-55
2022/03/03 01:07:51;;;;;;;29.77;18.70;;;;;;;1.62;61.66;101930.50;5031295;28;20481;-54
2022/03/03 01:10:17;;;;;;;26.97;18.43;;;;;;;1.61;60.82;101932.28;5030147;28;20480;-53
2022/03/03 01:12:42;;;;;;;29.23;18.60;;;;;;;1.65;63.00;101930.34;5033965;28;20034;-55
2022/03/03 01:15:09;;;;;;;33.67;18.93;;;;;;;1.51;61.87;101930.16;5026659;28;20040;-55
2022/03/03 01:17:35;;;;;;;29.80;18.47;;;;;;;1.46;62.67;101938.25;5030265;28;20090;-54
2022/03/03 01:20:00;;;;;;;28.83;18.93;;;;;;;1.48;63.44;101933.78;5030935;28;20130;-55
2022/03/03 01:22:25;;;;;;;26.90;18.03;;;;;;;1.44;62.91;101935.69;5030153;28;20056;-55
2022/03/03 01:24:51;;;;;;;29.70;19.03;;;;;;;1.43;63.12;101928.78;5026892;28;20698;-55
2022/03/03 01:27:17;;;;;;;30.93;19.37;;;;;;;1.43;63.95;101928.78;5031092;28;20065;-55
2022/03/03 01:29:42;;;;;;;32.60;19.13;;;;;;;1.34;63.23;101930.06;5031297;28;20017;-55
2022/03/03 01:32:08;;;;;;;27.97;18.63;;;;;;;1.31;63.53;101922.41;5030879;28;20018;-55
2022/03/03 01:34:34;;;;;;;30.90;19.70;;;;;;;1.37;63.82;101926.47;5033296;28;20025;-55
2022/03/03 01:36:59;;;;;;;29.20;18.67;;;;;;;1.33;63.98;101927.56;5032373;28;20362;-54
2022/03/03 01:39:24;;;;;;;27.93;19.30;;;;;;;1.31;63.84;101914.56;5032926;28;20492;-56
2022/03/03 01:41:50;;;;;;;27.57;18.37;;;;;;;1.33;64.03;101906.66;5031371;28;20039;-55
2022/03/03 01:44:16;;;;;;;28.93;19.00;;;;;;;1.26;64.77;101902.63;5030136;28;20022;-55
2022/03/03 01:46:51;;;;;;;30.20;19.80;;;;;;;1.27;63.39;101904.31;5032955;28;20029;-54
2022/03/03 01:49:17;;;;;;;29.17;19.10;;;;;;;1.20;63.21;101896.75;5031268;28;20033;-55
2022/03/03 01:51:42;;;;;;;29.73;18.83;;;;;;;1.15;65.07;101898.78;5029457;28;20383;-54
2022/03/03 01:54:08;;;;;;;29.47;19.17;;;;;;;1.14;64.45;101902.28;5030320;28;20025;-53
2022/03/03 01:56:34;;;;;;;31.33;19.93;;;;;;;1.06;65.20;101901.81;5032135;28;20034;-55
2022/03/03 01:58:59;;;;;;;30.80;20.10;;;;;;;0.91;64.16;101896.41;5026161;28;20091;-55
2022/03/03 02:01:24;;;;;;;30.30;19.23;;;;;;;0.87;64.92;101900.06;5023265;28;20457;-53
2022/03/03 02:03:50;;;;;;;29.40;19.93;;;;;;;0.89;65.33;101890.41;5030450;28;20028;-55
2022/03/03 02:06:15;;;;;;;30.67;20.67;;;;;;;0.89;66.33;101882.56;5021192;28;20045;-55
2022/03/03 02:08:41;;;;;;;30.27;20.00;;;;;;;0.84;65.47;101884.53;5030178;28;20037;-55
2022/03/03 02:11:08;;;;;;;31.53;20.27;;;;;;;0.78;65.19;101879.59;5031651;28;20083;-54
2022/03/03 02:13:34;;;;;;;30.70;20.60;;;;;;;0.77;65.75;101872.69;5029646;28;20103;-52
2022/03/03 02:15:59;;;;;;;32.40;21.73;;;;;;;0.73;66.69;101871.16;5024048;28;20025;-54
2022/03/03 02:18:25;;;;;;;31.03;20.40;;;;;;;0.66;65.93;101881.88;5032902;28;20059;-55
2022/03/03 02:20:50;;;;;;;30.53;20.27;;;;;;;0.58;65.69;101870.94;5031360;28;20041;-53
2022/03/03 02:23:15;;;;;;;31.67;20.23;;;;;;;0.57;66.15;101871.00;5034150;28;20088;-54
2022/03/03 02:25:41;;;;;;;34.47;21.10;;;;;;;0.54;66.30;101869.38;5029713;28;20041;-54
2022/03/03 02:28:06;;;;;;;31.40;20.13;;;;;;;0.46;67.11;101861.91;5030050;28;20480;-53
2022/03/03 02:30:32;;;;;;;29.83;19.97;;;;;;;0.45;67.32;101868.03;5028695;28;20113;-53
2022/03/03 02:32:57;;;;;;;31.53;20.23;;;;;;;0.47;67.03;101862.75;5031957;28;20029;-55
2022/03/03 02:35:23;;;;;;;29.50;20.10;;;;;;;0.46;67.17;101872.34;5026322;28;20029;-54
2022/03/03 02:37:48;;;;;;;33.10;20.73;;;;;;;0.39;66.53;101863.94;5031749;28;20112;-52
2022/03/03 02:40:20;;;;;;;32.47;20.67;;;;;;;0.45;67.13;101867.19;5026425;28;20037;-55
2022/03/03 02:42:47;;;;;;;31.58;20.75;;;;;;;0.46;67.29;101858.44;5028500;28;20033;-56
2022/03/03 02:45:13;;;;;;;32.63;20.70;;;;;;;0.47;67.80;101862.75;5023257;28;20141;-55
2022/03/03 02:47:45;;;;;;;31.13;20.67;;;;;;;0.47;66.99;101874.03;5027800;28;20079;-54
2022/03/03 02:50:11;;;;;;;33.57;20.13;;;;;;;0.39;67.00;101871.78;5031758;28;20025;-55
2022/03/03 02:52:36;;;;;;;31.57;20.60;;;;;;;0.37;66.75;101865.78;5031220;28;20033;-53
2022/03/03 02:55:03;;;;;;;32.40;21.00;;;;;;;0.35;66.79;101862.38;5031590;28;20025;-54
2022/03/03 03:00:12;;;;;;;31.23;20.10;;;;;;;0.29;67.18;101857.44;5026594;28;20075;-53
2022/03/03 03:02:38;;;;;;;30.77;20.97;;;;;;;0.26;67.79;101857.59;5023577;28;20095;-55
2022/03/03 03:05:03;;;;;;;33.20;20.57;;;;;;;0.28;67.91;101863.59;5027541;28;20034;-55
2022/03/03 03:07:28;;;;;;;32.77;20.73;;;;;;;0.28;68.40;101862.75;5031091;28;20065;-54
2022/03/03 03:09:54;;;;;;;32.13;20.97;;;;;;;0.22;68.10;101859.50;5029726;28;20483;-54
2022/03/03 03:12:19;;;;;;;31.00;20.67;;;;;;;0.20;67.37;101857.88;5029130;28;20472;-55
2022/03/03 03:14:44;;;;;;;34.67;21.53;;;;;;;0.12;67.64;101856.47;5025412;28;20030;-54
2022/03/03 03:17:10;;;;;;;29.90;20.23;;;;;;;0.21;68.46;101862.16;5025504;28;20033;-55
2022/03/03 03:19:35;;;;;;;31.07;20.73;;;;;;;0.12;67.95;101856.47;5026764;28;20033;-52
2022/03/03 03:22:00;;;;;;;32.50;21.07;;;;;;;0.16;67.73;101853.69;5027146;28;20052;-54
2022/03/03 03:24:25;;;;;;;30.87;20.67;;;;;;;0.14;68.55;101856.38;5025971;28;20128;-54
2022/03/03 03:26:51;;;;;;;34.13;20.87;;;;;;;0.11;68.88;101852.13;5028386;28;21051;-55
2022/03/03 03:29:17;;;;;;;33.57;20.47;;;;;;;0.11;68.34;101833.88;5028011;28;20065;-52
2022/03/03 03:31:42;;;;;;;33.70;21.23;;;;;;;0.10;68.18;101837.41;5026815;28;20030;-55
2022/03/03 03:34:07;;;;;;;35.27;20.13;;;;;;;0.08;68.20;101839.25;5030339;28;20111;-55
2022/03/03 03:36:32;;;;;;;30.87;20.60;;;;;;;0.00;67.83;101836.13;5029436;28;20034;-55
2022/03/03 03:38:58;;;;;;;35.90;20.47;;;;;;;0.02;68.66;101842.13;5029602;28;20447;-54
2022/03/03 03:41:23;;;;;;;33.10;20.43;;;;;;;0.01;68.72;101837.81;5030491;28;20037;-54
2022/03/03 03:43:48;;;;;;;33.97;20.73;;;;;;;0.02;68.72;101834.28;5028033;28;20049;-54
2022/03/03 03:46:13;;;;;;;31.97;20.27;;;;;;;0.02;68.93;101839.50;5029594;28;20031;-54
2022/03/03 03:48:39;;;;;;;34.60;20.93;;;;;;;-0.08;68.67;101838.22;5020458;28;20044;-55
2022/03/03 03:51:04;;;;;;;30.63;19.73;;;;;;;-0.07;68.97;101837.28;5027016;28;20500;-55
2022/03/03 03:53:29;;;;;;;31.40;20.00;;;;;;;-0.12;69.20;101816.66;5029572;28;20034;-54
2022/03/03 03:55:54;;;;;;;31.73;19.10;;;;;;;-0.06;69.17;101818.97;5030770;28;20087;-54
2022/03/03 03:58:20;;;;;;;33.00;20.70;;;;;;;-0.02;69.26;101817.06;5031784;28;20033;-53
2022/03/03 04:00:45;;;;;;;32.93;20.10;;;;;;;-0.10;68.64;101813.97;5028059;28;20412;-55
2022/03/03 04:03:10;;;;;;;31.40;20.03;;;;;;;-0.12;69.00;101821.00;5027527;28;20029;-55
2022/03/03 04:05:36;;;;;;;34.77;20.57;;;;;;;-0.14;69.29;101827.13;5024889;28;20041;-56
2022/03/03 04:08:02;;;;;;;33.53;20.27;;;;;;;-0.15;69.52;101833.25;5028407;28;20033;-53
2022/03/03 04:10:28;;;;;;;32.97;20.40;;;;;;;-0.22;70.01;101833.59;5025076;28;20029;-54
2022/03/03 04:12:54;;;;;;;30.83;20.57;;;;;;;-0.26;69.56;101835.50;5028533;28;20040;-55
2022/03/03 04:15:20;;;;;;;30.60;19.87;;;;;;;-0.33;69.74;101827.09;5029475;28;20473;-54
2022/03/03 04:17:45;;;;;;;30.60;19.77;;;;;;;-0.30;69.60;101831.34;5028354;28;20040;-55
2022/03/03 04:20:11;;;;;;;31.23;20.07;;;;;;;-0.30;70.76;101818.31;5026966;28;20050;-55
2022/03/03 04:22:36;;;;;;;32.93;20.57;;;;;;;-0.30;70.36;101815.69;5028333;28;20034;-54
2022/03/03 04:25:03;;;;;;;32.00;20.23;;;;;;;-0.25;70.68;101816.31;5029986;28;20029;-54
2022/03/03 04:27:29;;;;;;;33.10;20.80;;;;;;;-0.28;69.96;101813.88;5028981;28;20013;-53
2022/03/03 04:29:54;;;;;;;32.57;20.53;;;;;;;-0.31;69.84;101806.16;5029838;28;20469;-52
2022/03/03 04:32:19;;;;;;;34.30;21.27;;;;;;;-0.30;69.66;101805.28;5027673;28;20036;-54
2022/03/03 04:34:45;;;;;;;34.17;20.33;;;;;;;-0.33;69.18;101805.41;5028893;28;20034;-55
2022/03/03 04:37:10;;;;;;;32.20;19.73;;;;;;;-0.41;69.95;101805.72;5029196;28;20053;-54
2022/03/03 04:39:36;;;;;;;34.57;21.00;;;;;;;-0.43;70.14;101797.94;5030260;28;20041;-54
2022/03/03 04:42:01;;;;;;;34.13;21.30;;;;;;;-0.44;70.36;101803.25;5029506;28;20397;-55
2022/03/03 04:44:27;;;;;;;31.40;20.50;;;;;;;-0.50;70.02;101796.53;5029759;28;20104;-52
2022/03/03 04:46:52;;;;;;;33.10;20.57;;;;;;;-0.49;70.64;101787.78;5026199;28;20155;-55
2022/03/03 04:49:18;;;;;;;33.20;20.67;;;;;;;-0.49;70.27;101787.78;5029092;28;20033;-56
2022/03/03 04:51:43;;;;;;;33.23;19.97;;;;;;;-0.46;70.26;101781.59;5031098;28;20041;-56
2022/03/03 04:54:09;;;;;;;30.43;19.83;;;;;;;-0.46;69.98;101784.22;5030824;28;20150;-55
2022/03/03 04:56:35;;;;;;;31.93;20.33;;;;;;;-0.42;70.38;101778.81;5026221;28;20036;-55
2022/03/03 04:59:00;;;;;;;34.90;21.40;;;;;;;-0.46;70.09;101779.00;5030668;28;20033;-55
2022/03/03 05:01:26;;;;;;;33.83;20.27;;;;;;;-0.39;69.88;101784.81;5016847;28;20038;-53
2022/03/03 05:03:51;;;;;;;31.70;19.60;;;;;;;-0.41;69.51;101785.72;5026079;28;20068;-55
2022/03/03 05:06:17;;;;;;;38.07;20.57;;;;;;;-0.44;69.75;101780.63;5022530;28;20041;-55
2022/03/03 05:08:43;;;;;;;33.83;20.60;;;;;;;-0.47;70.02;101790.34;5031042;28;20449;-52
2022/03/03 05:11:08;;;;;;;33.03;20.63;;;;;;;-0.53;70.30;101791.47;5033359;28;20037;-55
2022/03/03 05:13:34;;;;;;;32.37;20.33;;;;;;;-0.57;70.82;101792.50;5029250;28;20029;-54
2022/03/03 05:15:59;;;;;;;30.97;20.13;;;;;;;-0.58;70.97;101794.25;5028460;28;20033;-54
2022/03/03 05:18:24;;;;;;;32.50;20.60;;;;;;;-0.56;70.62;101802.00;5030931;28;20042;-55
2022/03/03 05:20:50;;;;;;;33.30;20.23;;;;;;;-0.55;70.22;101798.47;5032874;28;20052;-55
2022/03/03 05:23:15;;;;;;;33.50;20.60;;;;;;;-0.55;72.00;101798.47;5031235;28;20025;-55
2022/03/03 05:25:40;;;;;;;29.83;20.17;;;;;;;-0.55;72.26;101790.66;5030348;28;20476;-54
2022/03/03 05:28:05;;;;;;;34.33;20.77;;;;;;;-0.57;71.53;101797.72;5030213;28;20033;-54
2022/03/03 05:30:31;;;;;;;32.90;20.67;;;;;;;-0.61;71.57;101798.75;5033735;28;20096;-55
2022/03/03 05:32:57;;;;;;;32.47;20.23;;;;;;;-0.61;72.10;101798.75;5034981;28;20029;-55
2022/03/03 05:35:23;;;;;;;34.40;20.43;;;;;;;-0.59;71.37;101791.72;5032222;28;20044;-54
2022/03/03 05:37:49;;;;;;;32.67;20.80;;;;;;;-0.58;71.75;101798.63;5033236;28;20033;-54
2022/03/03 05:40:15;;;;;;;35.80;20.87;;;;;;;-0.62;71.92;101799.66;5030010;28;20501;-53
2022/03/03 05:42:40;;;;;;;35.57;20.53;;;;;;;-0.62;71.83;101800.53;5030315;28;20357;-54
2022/03/03 05:45:06;;;;;;;35.60;21.27;;;;;;;-0.66;70.88;101805.94;5029179;28;20113;-55
2022/03/03 05:47:34;;;;;;;37.83;21.87;;;;;;;-0.73;71.80;101798.34;5032513;28;20112;-54
2022/03/03 05:50:01;;;;;;;36.40;21.67;;;;;;;-0.71;71.50;101813.91;5030462;28;20103;-55
2022/03/03 05:52:27;;;;;;;37.93;22.43;;;;;;;-0.78;71.60;101802.06;5023853;28;20040;-53
2022/03/03 05:54:53;;;;;;;37.37;21.93;;;;;;;-0.82;71.59;101806.56;5032229;28;20029;-52
2022/03/03 05:57:25;;;;;;;35.70;21.37;;;;;;;-0.86;71.71;101795.41;5030877;28;20045;-55
2022/03/03 05:59:51;;;;;;;38.70;20.75;;;;;;;-0.83;71.98;101797.88;5028183;28;20037;-55
2022/03/03 06:02:20;;;;;;;32.47;20.90;;;;;;;-0.83;72.03;101805.69;5024547;28;20033;-55
2022/03/03 06:04:48;;;;;;;34.67;20.90;;;;;;;-0.82;72.42;101801.34;5026730;28;20052;-54
2022/03/03 06:07:23;;;;;;;33.73;21.10;;;;;;;-0.90;72.70;101787.81;5030790;28;20056;-52
2022/03/03 06:09:51;;;;;;;36.53;20.80;;;;;;;-0.91;72.19;101786.09;5031523;28;20025;-54
2022/03/03 06:12:47;;;;;;;32.70;20.70;;;;;;;-0.82;71.97;101790.94;5028733;28;20033;-54
2022/03/03 06:15:13;;;;;;;34.47;20.43;;;;;;;-0.85;72.27;101788.44;5027042;28;20060;-51
2022/03/03 06:17:42;;;;;;;32.90;20.20;;;;;;;-0.89;71.76;101794.69;5028163;28;20067;-55
2022/03/03 06:20:07;;;;;;;33.60;20.03;;;;;;;-0.87;72.35;101792.88;5032129;28;20412;-53
2022/03/03 06:22:33;;;;;;;31.40;20.30;;;;;;;-0.91;72.17;101788.69;5028173;28;20041;-53
2022/03/03 06:24:58;;;;;;;31.80;20.43;;;;;;;-0.92;72.28;101792.22;5028398;28;20029;-54
2022/03/03 06:27:24;;;;;;;33.37;21.20;;;;;;;-0.98;71.93;101786.34;5027467;28;20745;-51
2022/03/03 06:29:49;;;;;;;34.73;20.73;;;;;;;-0.96;72.42;101789.75;5030854;28;20437;-54
2022/03/03 06:32:15;;;;;;;37.17;19.73;;;;;;;-0.94;72.42;101797.47;5028716;28;20040;-58
2022/03/03 06:34:40;;;;;;;31.17;20.00;;;;;;;-0.97;71.97;101798.47;5027159;28;20219;-59
2022/03/03 06:37:06;;;;;;;31.33;19.63;;;;;;;-0.97;71.75;101802.81;5022242;28;20017;-54
2022/03/03 06:39:31;;;;;;;32.83;20.13;;;;;;;-0.97;72.37;101798.47;5021981;28;20037;-54
2022/03/03 06:41:57;;;;;;;30.43;19.30;;;;;;;-0.96;72.43;101794.94;5019463;28;20057;-55
2022/03/03 06:44:22;;;;;;;35.50;20.93;;;;;;;-0.99;71.99;101800.28;5022186;28;20060;-52
2022/03/03 06:46:47;;;;;;;33.33;20.33;;;;;;;-1.00;71.63;101798.59;5020734;28;20032;-54
2022/03/03 06:49:13;;;;;;;31.97;20.23;;;;;;;-0.99;72.58;101808.09;5024681;28;20037;-54
2022/03/03 06:51:44;;;;;;;37.03;20.47;;;;;;;-0.98;72.54;101807.16;5016948;28;20388;-55
2022/03/03 06:54:21;;;;;;;33.63;20.80;;;;;;;-0.93;72.40;101809.59;5025567;28;20037;-55
2022/03/03 06:56:52;;;;;;;31.37;20.23;;;;;;;-0.92;72.10;101805.22;5019707;28;20413;-54
2022/03/03 06:59:21;;;;;;;35.50;21.83;;;;;;;-0.92;71.98;101818.25;5038018;28;20034;-53
2022/03/03 07:01:48;;;;;;;30.33;19.97;;;;;;;-0.90;71.92;101813.84;5027942;28;20121;-54
2022/03/03 07:04:16;;;;;;;37.87;21.27;;;;;;;-0.86;72.72;101825.81;5016612;28;20057;-54
2022/03/03 07:06:42;;;;;;;33.70;21.43;;;;;;;-0.81;72.78;101816.06;5021970;28;20053;-51
2022/03/03 07:09:08;;;;;;;37.37;21.20;;;;;;;-0.72;72.82;101823.50;5030127;28;20029;-54
2022/03/03 07:11:33;;;;;;;35.87;21.43;;;;;;;-0.69;72.46;101820.75;5025283;28;20033;-54
2022/03/03 07:13:59;;;;;;;32.70;21.47;;;;;;;-0.65;72.26;101824.06;5027993;28;20062;-52
2022/03/03 07:16:38;;;;;;;36.13;22.13;;;;;;;-0.63;71.59;101821.41;5032363;28;20033;-54
2022/03/03 07:19:05;;;;;;;33.30;20.53;;;;;;;-0.56;70.57;101828.06;5023080;28;20530;-53
2022/03/03 07:22:00;;;;;;;35.60;21.53;;;;;;;-0.47;70.77;101827.69;5029913;28;20021;-52
2022/03/03 07:24:33;;;;;;;31.57;20.30;;;;;;;-0.45;70.53;101831.06;5031056;28;20427;-54
2022/03/03 07:27:07;;;;;;;36.95;21.15;;;;;;;-0.43;70.82;101818.81;5021506;28;20040;-54
2022/03/03 07:29:34;;;;;;;38.67;21.53;;;;;;;-0.35;70.33;101826.31;5022482;28;20476;-51
2022/03/03 07:32:05;;;;;;;34.97;20.97;;;;;;;-0.34;70.11;101819.34;5028882;28;20029;-53
2022/03/03 07:34:32;;;;;;;35.30;20.83;;;;;;;-0.20;70.36;101837.00;5025614;28;20044;-53
2022/03/03 07:37:04;;;;;;;34.23;21.27;;;;;;;-0.12;71.14;101834.03;5025675;28;20112;-56
2022/03/03 07:39:39;;;;;;;34.50;20.63;;;;;;;-0.05;69.41;101827.66;5023294;28;20029;-55
2022/03/03 07:42:04;;;;;;;35.20;21.33;;;;;;;0.04;69.33;101840.28;5029593;28;20040;-56
2022/03/03 07:44:29;;;;;;;32.27;20.43;;;;;;;0.09;69.16;101830.50;5024868;28;20033;-56
2022/03/03 07:46:55;;;;;;;34.40;21.47;;;;;;;0.18;68.67;101831.84;5024219;28;20152;-56
2022/03/03 07:49:21;;;;;;;34.60;20.80;;;;;;;0.27;68.03;101838.41;5034832;28;20136;-55
2022/03/03 07:51:49;;;;;;;32.07;21.27;;;;;;;0.33;67.86;101826.84;5026362;28;20113;-56
2022/03/03 07:54:15;;;;;;;32.47;21.63;;;;;;;0.40;68.22;101823.88;5030822;28;20061;-56
2022/03/03 07:56:43;;;;;;;33.90;20.23;;;;;;;0.50;67.18;101826.06;5030971;28;20091;-56
2022/03/03 07:59:11;;;;;;;34.77;21.87;;;;;;;0.60;66.98;101829.94;5042279;28;20033;-56
2022/03/03 08:01:38;;;;;;;33.30;21.50;;;;;;;0.68;67.98;101826.97;5029714;28;20017;-57
2022/03/03 08:04:04;;;;;;;39.03;21.30;;;;;;;0.79;67.18;101834.31;5021719;28;20542;-56
2022/03/03 08:06:32;;;;;;;34.80;21.00;;;;;;;0.86;66.44;101824.41;5029917;28;20046;-57
2022/03/03 08:08:59;;;;;;;31.17;19.90;;;;;;;0.96;65.79;101830.03;5030357;28;20040;-55
2022/03/03 08:11:26;;;;;;;29.93;19.83;;;;;;;1.05;65.54;101835.66;5018159;28;20502;-57
2022/03/03 08:13:53;;;;;;;32.20;19.60;;;;;;;1.17;65.94;101834.22;5029328;28;20116;-56
2022/03/03 08:16:19;;;;;;;30.97;19.50;;;;;;;1.29;65.10;101829.31;5033990;28;20033;-56
2022/03/03 08:18:47;;;;;;;32.97;20.00;;;;;;;1.34;64.67;101824.72;5026966;28;20022;-57
2022/03/03 08:21:13;;;;;;;31.87;18.37;;;;;;;1.52;63.46;101832.53;5027223;28;20052;-56
2022/03/03 08:23:40;;;;;;;28.17;18.27;;;;;;;1.60;63.30;101835.59;5033430;28;20049;-57
2022/03/03 08:26:05;;;;;;;30.53;18.27;;;;;;;1.69;62.37;101827.31;5036042;28;20041;-56
2022/03/03 08:28:31;;;;;;;29.90;17.77;;;;;;;1.79;62.02;101824.19;5040364;28;20025;-56
2022/03/03 08:31:00;;;;;;;28.57;17.60;;;;;;;1.85;60.79;101821.25;5041186;28;20029;-57
2022/03/03 08:33:45;;;;;;;30.33;18.13;;;;;;;2.01;60.50;101822.16;5031997;28;21212;-57
2022/03/03 08:36:30;;;;;;;29.73;18.03;;;;;;;2.11;60.94;101819.03;5034485;28;20049;-56
2022/03/03 08:39:03;;;;;;;29.13;17.63;;;;;;;2.12;60.23;101808.50;5036874;28;20033;-56
2022/03/03 08:41:30;;;;;;;29.00;17.98;;;;;;;2.32;59.52;101816.22;5031761;28;20045;-55
2022/03/03 08:43:58;;;;;;;29.00;17.83;;;;;;;2.39;58.62;101822.78;5025222;28;20026;-56
2022/03/03 08:46:25;;;;;;;27.47;17.93;;;;;;;2.51;58.06;101827.34;5026914;28;20060;-54
2022/03/03 08:48:51;;;;;;;29.00;17.57;;;;;;;2.61;58.10;101826.88;5033572;28;20041;-57
2022/03/03 08:51:19;;;;;;;28.70;17.30;;;;;;;2.71;57.57;101833.25;5024284;28;20033;-57
2022/03/03 08:53:47;;;;;;;29.73;17.83;;;;;;;2.81;57.53;101829.22;5026678;28;20025;-57
2022/03/03 08:56:12;;;;;;;27.13;17.50;;;;;;;2.90;57.50;101832.22;5031913;28;20426;-57
2022/03/03 08:58:38;;;;;;;29.87;18.03;;;;;;;2.96;58.22;101831.88;5029395;28;20027;-57
2022/03/03 09:01:03;;;;;;;26.63;17.37;;;;;;;3.07;57.75;101833.91;5032814;28;20536;-56
2022/03/03 09:03:28;;;;;;;26.53;16.57;;;;;;;3.15;56.89;101828.25;5037537;28;20455;-56
2022/03/03 09:05:56;;;;;;;31.03;17.37;;;;;;;3.27;56.71;101834.53;5027696;28;20049;-56
2022/03/03 09:08:22;;;;;;;29.33;17.03;;;;;;;3.35;56.57;101834.91;5024514;28;20434;-55
2022/03/03 09:10:48;;;;;;;32.63;17.40;;;;;;;3.43;56.03;101827.47;5025307;28;20029;-55
2022/03/03 09:13:14;;;;;;;25.97;16.53;;;;;;;3.48;55.75;101829.81;5024889;28;20025;-53
2022/03/03 09:15:39;;;;;;;26.13;16.37;;;;;;;3.55;54.82;101833.75;5032265;28;20603;-56
2022/03/03 09:18:05;;;;;;;26.10;16.50;;;;;;;3.66;54.69;101832.28;5030593;28;20060;-55
2022/03/03 09:20:30;;;;;;;25.87;16.10;;;;;;;3.75;55.12;101834.38;5024673;28;20078;-54
2022/03/03 09:22:55;;;;;;;27.10;16.30;;;;;;;3.81;54.75;101834.00;5030532;28;20034;-55
2022/03/03 09:25:20;;;;;;;27.50;16.27;;;;;;;3.88;54.41;101827.44;5024136;28;20109;-54
2022/03/03 09:27:46;;;;;;;25.47;16.17;;;;;;;3.96;54.40;101826.13;5033834;28;20022;-54
2022/03/03 09:30:12;;;;;;;25.77;16.30;;;;;;;4.05;53.98;101815.06;5026792;28;20041;-54
2022/03/03 09:32:38;;;;;;;26.20;16.30;;;;;;;4.11;53.46;101817.31;5027598;28;20091;-55
2022/03/03 09:35:05;;;;;;;26.00;16.10;;;;;;;4.20;53.35;101818.53;5031318;28;20551;-55
2022/03/03 09:37:30;;;;;;;25.00;15.63;;;;;;;4.28;52.65;101811.00;5032681;28;20041;-53
2022/03/03 09:39:55;;;;;;;25.03;15.13;;;;;;;4.35;51.04;101814.09;5032515;28;20496;-55
2022/03/03 09:42:21;;;;;;;24.53;15.27;;;;;;;4.41;51.88;101816.34;5047157;28;20045;-54
2022/03/03 09:44:46;;;;;;;24.40;14.83;;;;;;;4.47;52.05;101811.63;5028872;28;20488;-54
2022/03/03 09:47:12;;;;;;;25.30;15.80;;;;;;;4.56;51.73;101813.66;5028828;28;20099;-54
2022/03/03 09:49:39;;;;;;;28.13;15.57;;;;;;;4.64;50.36;101808.75;5033385;28;20502;-54
2022/03/03 09:52:30;;;;;;;28.33;15.07;;;;;;;4.75;49.86;101801.97;5022448;28;20565;-53
2022/03/03 09:54:57;;;;;;;25.37;15.33;;;;;;;4.81;48.63;101799.81;5028987;28;20400;-56
2022/03/03 09:57:24;;;;;;;24.77;14.50;;;;;;;4.88;48.73;101807.28;5032903;28;20036;-54
2022/03/03 09:59:50;;;;;;;24.40;14.77;;;;;;;4.93;48.85;101806.03;5028451;28;20025;-53
2022/03/03 10:02:15;;;;;;;25.70;14.33;;;;;;;5.03;48.27;101810.69;5028066;28;20033;-53
2022/03/03 10:04:40;;;;;;;23.83;14.43;;;;;;;5.07;47.69;101805.13;5026257;28;20029;-53
2022/03/03 10:07:08;;;;;;;23.40;14.82;;;;;;;5.17;48.46;101808.00;5028674;28;20045;-54
2022/03/03 10:12:19;;;;;;;25.07;14.87;;;;;;;5.31;47.49;101804.44;5032561;28;20447;-55
2022/03/03 10:14:48;;;;;;;24.05;14.95;;;;;;;5.39;47.97;101801.31;5029094;28;20029;-54
2022/03/03 10:17:14;;;;;;;23.75;14.18;;;;;;;5.45;46.55;101800.03;5030196;28;20025;-53
2022/03/03 10:19:54;;;;;;;23.85;14.90;;;;;;;5.57;46.52;101803.63;5030000;28;20091;-55
2022/03/03 10:22:39;;;;;;;23.52;15.18;;;;;;;5.64;48.94;101799.63;5031577;28;20476;-55
2022/03/03 10:25:05;;;;;;;27.17;14.98;;;;;;;5.74;47.67;101795.44;5029150;28;20108;-55
2022/03/03 10:27:33;;;;;;;23.75;15.30;;;;;;;5.82;48.54;101802.78;5028735;28;20025;-54
2022/03/03 10:29:58;;;;;;;26.08;15.05;;;;;;;5.94;46.86;101795.81;5032778;28;20047;-55
2022/03/03 10:32:25;;;;;;;28.38;16.38;;;;;;;6.02;48.46;101790.88;5025715;28;20497;-54
2022/03/03 10:34:53;;;;;;;28.65;17.17;;;;;;;6.05;48.33;101787.19;5030234;28;20031;-54
2022/03/03 10:37:23;;;;;;;26.73;17.13;;;;;;;6.07;49.52;101782.66;5031817;28;20483;-54
2022/03/03 10:39:56;;;;;;;23.55;15.05;;;;;;;6.08;48.48;101787.00;5031480;28;20037;-54
2022/03/03 10:42:24;;;;;;;22.23;13.95;;;;;;;6.18;45.58;101781.91;5030064;28;20064;-54
2022/03/03 10:45:03;;;;;;;23.17;13.85;;;;;;;6.27;44.16;101764.59;5026601;28;20034;-55
2022/03/03 10:47:29;;;;;;;22.10;13.00;;;;;;;6.40;43.62;101780.34;5027749;28;20542;-54
2022/03/03 10:49:57;;;;;;;21.95;13.75;;;;;;;6.46;42.82;101769.38;5030292;28;20113;-54
2022/03/03 10:52:24;;;;;;;21.90;12.98;;;;;;;6.50;42.77;101759.47;5029277;28;20079;-55
2022/03/03 10:55:01;;;;;;;21.80;13.32;;;;;;;6.65;43.99;101773.31;5030543;28;20658;-54
2022/03/03 10:57:51;;;;;;;23.70;13.63;;;;;;;6.71;43.15;101772.88;5027507;28;20496;-55
2022/03/03 11:00:23;;;;;;;21.75;13.43;;;;;;;6.79;41.56;101773.13;5028133;28;20032;-55
2022/03/03 11:02:51;;;;;;;24.05;13.75;;;;;;;6.79;42.47;101765.22;5027427;28;20036;-54
2022/03/03 11:05:18;;;;;;;21.75;13.13;;;;;;;6.86;42.26;101771.72;5031366;28;20034;-55
2022/03/03 11:07:45;;;;;;;21.55;13.65;;;;;;;7.04;42.72;101767.81;5024884;28;20029;-58
2022/03/03 11:10:13;;;;;;;22.45;13.15;;;;;;;7.15;42.21;101774.94;5029594;28;20037;-57
2022/03/03 11:12:45;;;;;;;21.52;14.00;;;;;;;7.22;42.85;101771.72;5025213;28;20025;-56
2022/03/03 11:15:12;;;;;;;30.25;14.73;;;;;;;7.25;43.84;101779.41;5030558;28;20568;-55
2022/03/03 11:17:38;;;;;;;22.92;14.93;;;;;;;7.26;43.61;101772.34;5022647;28;20041;-55